Time;durP1;ratioP1;P1;durP2;ratioP2;P2;SDS_P1;SDS_P2;PMS_P1;PMS_P2;Temp;Humidity;BMP_temperature;BMP_pressure;BME280_temperature;BME280_humidity;BME280_pressure;Samples;Min_cycle;Max_cycle;Signal;HPM_P1;HPM_P2
2022/10/29 00:02:24;;;;;;;11.73;6.85;;;;;;;15.50;79.01;102051.91;4788798;29;20083;-86
2022/10/29 00:04:50;;;;;;;11.35;6.60;;;;;;;15.44;78.54;102040.63;4785013;30;20035;-86
2022/10/29 00:07:15;;;;;;;10.38;5.63;;;;;;;15.31;77.59;102041.13;4786767;29;20031;-85
2022/10/29 00:09:40;;;;;;;12.20;6.30;;;;;;;15.40;76.87;102028.38;4782082;29;20049;-85
2022/10/29 00:12:06;;;;;;;12.93;7.88;;;;;;;15.38;78.28;102023.09;4796843;29;20105;-86
2022/10/29 00:14:31;;;;;;;18.63;9.48;;;;;;;15.27;79.47;102017.34;4785315;29;20399;-85
2022/10/29 00:16:57;;;;;;;17.85;8.93;;;;;;;15.14;79.12;102024.97;4795355;29;20031;-86
2022/10/29 00:19:22;;;;;;;16.33;8.35;;;;;;;15.11;77.99;102018.88;4782111;29;20051;-85
2022/10/29 00:21:50;;;;;;;15.85;9.32;;;;;;;15.08;80.26;102027.00;4783217;29;20069;-86
2022/10/29 00:24:16;;;;;;;18.50;8.05;;;;;;;14.98;79.72;102030.03;4786951;29;20498;-85
2022/10/29 00:26:41;;;;;;;14.40;7.82;;;;;;;14.88;79.67;102030.47;4785667;30;20193;-85
2022/10/29 00:29:06;;;;;;;16.38;7.85;;;;;;;14.91;79.86;102035.66;4786961;29;20055;-85
2022/10/29 00:31:32;;;;;;;11.52;7.63;;;;;;;14.88;80.01;102041.13;4780466;30;20073;-85
2022/10/29 00:33:57;;;;;;;12.35;6.35;;;;;;;14.92;79.01;102042.72;4784073;30;20037;-85
2022/10/29 00:36:26;;;;;;;16.13;8.20;;;;;;;14.87;79.79;102032.25;4777493;30;20476;-85
2022/10/29 00:38:52;;;;;;;12.93;8.70;;;;;;;14.92;79.64;102034.72;4761634;29;20503;-85
2022/10/29 00:41:20;;;;;;;13.77;9.10;;;;;;;15.07;80.02;102051.91;4774925;29;20024;-86
2022/10/29 00:44:09;;;;;;;18.23;8.07;;;;;;;15.02;78.95;102044.97;4786527;29;20050;-85
2022/10/29 00:46:35;;;;;;;18.42;9.02;;;;;;;15.09;79.94;102047.38;4774395;30;20516;-85
2022/10/29 00:49:02;;;;;;;16.75;8.00;;;;;;;15.08;79.21;102043.84;4782833;29;20058;-86
2022/10/29 00:51:29;;;;;;;21.73;7.35;;;;;;;15.13;78.88;102046.34;4768721;30;20059;-85
2022/10/29 00:54:01;;;;;;;19.42;8.88;;;;;;;15.08;78.93;102041.19;4775271;30;20173;-86
2022/10/29 00:56:28;;;;;;;15.13;8.20;;;;;;;15.01;79.26;102029.94;4771490;30;20123;-85
2022/10/29 00:58:54;;;;;;;14.68;7.82;;;;;;;15.09;78.98;102034.94;4775613;30;20103;-85
2022/10/29 01:01:19;;;;;;;13.30;8.23;;;;;;;15.08;79.20;102035.88;4774585;29;20484;-86
2022/10/29 01:03:45;;;;;;;15.98;7.35;;;;;;;15.04;79.84;102045.75;4775273;30;20031;-86
2022/10/29 01:06:12;;;;;;;16.13;8.05;;;;;;;15.03;80.53;102046.69;4773734;29;20027;-86
2022/10/29 01:08:37;;;;;;;15.93;7.85;;;;;;;15.01;79.74;102047.69;4779728;29;20024;-85
2022/10/29 01:11:29;;;;;;;13.38;8.48;;;;;;;14.98;79.73;102043.34;4778945;30;20038;-86
2022/10/29 01:14:07;;;;;;;11.13;7.88;;;;;;;15.10;79.46;102051.78;4768195;30;20124;-86
2022/10/29 01:16:45;;;;;;;17.58;8.25;;;;;;;15.05;79.46;102023.53;4779729;29;20028;-85
2022/10/29 01:19:35;;;;;;;17.48;9.48;;;;;;;15.05;80.32;102017.34;4778602;29;20108;-86
2022/10/29 01:22:20;;;;;;;16.02;9.95;;;;;;;15.00;81.47;102027.31;4785131;29;20102;-86
2022/10/29 01:25:11;;;;;;;17.98;9.75;;;;;;;14.91;80.46;102025.00;4794106;29;20067;-85
2022/10/29 01:27:47;;;;;;;16.15;8.98;;;;;;;14.78;80.13;102016.63;4770864;30;20023;-85
2022/10/29 01:30:22;;;;;;;19.75;10.00;;;;;;;14.76;81.62;102024.69;4779040;29;20492;-86
2022/10/29 01:33:06;;;;;;;19.40;10.00;;;;;;;14.79;81.12;102029.91;4779920;29;20034;-85
2022/10/29 01:35:50;;;;;;;15.45;8.73;;;;;;;14.80;81.15;102028.09;4782662;30;20031;-85
2022/10/29 01:38:40;;;;;;;14.45;9.20;;;;;;;14.76;81.17;102007.84;4755604;30;20043;-86
2022/10/29 01:41:32;;;;;;;17.10;9.43;;;;;;;14.87;80.71;102021.59;4760559;30;20038;-86
2022/10/29 01:44:04;;;;;;;13.70;8.77;;;;;;;14.77;80.17;102009.56;4779620;30;20039;-85
2022/10/29 01:46:36;;;;;;;17.55;9.02;;;;;;;14.63;80.74;101995.94;4768448;30;20051;-85
2022/10/29 01:49:08;;;;;;;14.00;8.63;;;;;;;14.49;80.31;101984.00;4775125;29;20024;-86
2022/10/29 01:51:36;;;;;;;16.25;8.93;;;;;;;14.52;80.16;101988.38;4780703;30;20492;-86
2022/10/29 01:54:07;;;;;;;17.95;9.98;;;;;;;14.57;82.36;102001.50;4776885;30;20032;-85
2022/10/29 01:56:33;;;;;;;20.38;9.40;;;;;;;14.51;81.54;101982.19;4777991;29;20035;-86
2022/10/29 01:59:00;;;;;;;18.15;9.88;;;;;;;14.51;81.34;101981.31;4776212;30;20099;-85
2022/10/29 02:02:02;;;;;;;18.17;10.60;;;;;;;14.59;82.21;101984.53;4782929;29;20031;-85
2022/10/29 02:04:47;;;;;;;20.30;10.77;;;;;;;14.64;82.21;101977.25;4772152;30;20038;-85
2022/10/29 02:07:15;;;;;;;18.45;9.68;;;;;;;14.69;81.46;101987.72;4774606;30;20439;-86
2022/10/29 02:09:56;;;;;;;19.77;9.52;;;;;;;14.60;80.67;101969.44;4782873;29;20023;-86
2022/10/29 02:12:46;;;;;;;17.13;10.32;;;;;;;14.66;80.96;101980.72;4765182;30;20035;-86
2022/10/29 02:15:19;;;;;;;19.60;11.27;;;;;;;14.50;82.23;101974.22;4758001;30;20110;-86
2022/10/29 02:17:45;;;;;;;18.45;10.43;;;;;;;14.55;81.82;101988.25;4781168;29;20439;-86
2022/10/29 02:20:13;;;;;;;18.35;10.55;;;;;;;14.39;82.32;101968.44;4793582;29;20039;-86
2022/10/29 02:22:38;;;;;;;20.25;10.68;;;;;;;14.38;83.18;101959.59;4799276;29;20043;-85
2022/10/29 02:25:04;;;;;;;22.67;11.15;;;;;;;14.47;82.93;101974.34;4778172;29;20084;-86
2022/10/29 02:27:30;;;;;;;19.98;11.32;;;;;;;14.44;83.20;101975.31;4796989;29;20492;-86
2022/10/29 02:29:55;;;;;;;21.30;10.88;;;;;;;14.38;83.38;101970.22;4768295;29;20335;-85
2022/10/29 02:32:20;;;;;;;21.33;11.07;;;;;;;14.38;83.32;101956.94;4801080;29;20091;-86
2022/10/29 02:34:46;;;;;;;20.55;11.70;;;;;;;14.43;83.60;101957.63;4797712;29;20034;-86
2022/10/29 02:37:11;;;;;;;20.45;10.98;;;;;;;14.56;82.87;101966.03;4782006;29;20028;-86
2022/10/29 02:39:36;;;;;;;19.80;12.10;;;;;;;14.44;83.58;101955.81;4798349;29;20063;-86
2022/10/29 02:42:02;;;;;;;20.45;11.15;;;;;;;14.39;83.87;101945.34;4802727;29;20062;-86
2022/10/29 02:44:27;;;;;;;23.20;11.32;;;;;;;14.44;83.49;101939.84;4797994;29;20065;-85
2022/10/29 02:46:52;;;;;;;18.02;10.27;;;;;;;14.50;82.71;101948.53;4794028;29;20027;-86
2022/10/29 02:49:18;;;;;;;17.10;10.93;;;;;;;14.39;81.94;101926.72;4777905;30;20031;-85
2022/10/29 02:51:43;;;;;;;17.13;9.65;;;;;;;14.48;81.31;101946.81;4783854;29;20110;-86
2022/10/29 02:54:08;;;;;;;14.40;8.85;;;;;;;14.43;80.65;101930.16;4788242;29;20511;-85
2022/10/29 02:56:33;;;;;;;16.55;10.93;;;;;;;14.42;82.14;101939.06;4801366;29;20019;-85
2022/10/29 02:58:59;;;;;;;18.92;10.65;;;;;;;14.30;82.61;101925.28;4781487;29;20027;-85
2022/10/29 03:01:24;;;;;;;17.00;8.82;;;;;;;14.25;81.87;101937.91;4792413;29;20510;-86
2022/10/29 03:03:49;;;;;;;16.40;9.95;;;;;;;14.21;81.96;101938.06;4789869;29;20034;-85
2022/10/29 03:06:17;;;;;;;16.60;9.50;;;;;;;14.25;82.91;101943.22;4777766;29;20503;-85
2022/10/29 03:08:43;;;;;;;18.25;9.70;;;;;;;14.19;82.34;101940.78;4797933;29;20035;-86
2022/10/29 03:11:09;;;;;;;13.45;9.27;;;;;;;14.10;82.37;101926.97;4802181;29;20400;-85
2022/10/29 03:13:34;;;;;;;13.68;10.05;;;;;;;14.08;82.32;101926.16;4805829;29;20046;-86
2022/10/29 03:15:59;;;;;;;17.25;10.52;;;;;;;14.14;82.72;101936.59;4775256;29;20039;-85
2022/10/29 03:18:25;;;;;;;16.95;9.85;;;;;;;14.08;82.81;101931.47;4796398;29;20050;-86
2022/10/29 03:20:50;;;;;;;17.92;10.40;;;;;;;14.02;83.64;101922.81;4805491;29;20031;-86
2022/10/29 03:23:15;;;;;;;21.13;10.80;;;;;;;14.03;83.36;101921.91;4803895;29;20079;-85
2022/10/29 03:25:41;;;;;;;19.15;11.32;;;;;;;13.98;83.25;101917.66;4791621;29;20031;-85
2022/10/29 03:28:06;;;;;;;21.15;11.55;;;;;;;13.93;83.55;101915.16;4795899;29;20395;-85
2022/10/29 03:30:31;;;;;;;19.73;11.05;;;;;;;13.99;84.53;101919.41;4784718;29;20027;-86
2022/10/29 03:32:57;;;;;;;26.45;11.68;;;;;;;13.88;84.66;101905.63;4781558;29;20038;-85
2022/10/29 03:35:22;;;;;;;21.58;11.02;;;;;;;13.98;84.03;101912.34;4783580;29;20452;-86
2022/10/29 03:37:49;;;;;;;18.05;11.40;;;;;;;13.98;85.37;101912.34;4763625;30;20501;-86
2022/10/29 03:40:14;;;;;;;23.52;12.68;;;;;;;13.94;85.74;101913.38;4779546;29;20042;-85
2022/10/29 03:42:40;;;;;;;16.50;11.18;;;;;;;13.96;84.84;101916.84;4794848;29;20031;-85
2022/10/29 03:45:05;;;;;;;30.83;13.13;;;;;;;13.97;85.56;101902.63;4793580;29;20062;-86
2022/10/29 03:47:32;;;;;;;23.35;11.95;;;;;;;13.99;85.98;101906.97;4797513;29;20042;-85
2022/10/29 03:49:57;;;;;;;19.65;11.93;;;;;;;13.93;85.86;101901.00;4788773;29;20035;-85
2022/10/29 03:52:22;;;;;;;23.30;12.15;;;;;;;13.97;84.99;101897.31;4805449;29;20031;-85
2022/10/29 03:54:48;;;;;;;20.55;11.80;;;;;;;14.02;85.83;101895.34;4803587;29;20062;-85
2022/10/29 03:57:13;;;;;;;23.77;12.68;;;;;;;14.08;85.74;101905.75;4794688;29;20522;-85
2022/10/29 03:59:38;;;;;;;20.80;12.38;;;;;;;14.18;85.75;101904.50;4776902;29;20126;-86
2022/10/29 04:02:04;;;;;;;22.00;12.23;;;;;;;14.21;85.90;101907.03;4778978;29;20031;-85
2022/10/29 04:04:29;;;;;;;16.52;10.88;;;;;;;14.13;86.13;101890.50;4776956;29;20039;-86
2022/10/29 04:06:54;;;;;;;17.33;11.50;;;;;;;14.16;84.83;101879.72;4781527;29;20062;-85
2022/10/29 04:09:20;;;;;;;17.65;9.73;;;;;;;14.19;84.18;101876.09;4800222;29;20026;-86
2022/10/29 04:11:45;;;;;;;18.27;9.63;;;;;;;14.12;84.49;101878.13;4788427;29;20031;-85
2022/10/29 04:14:10;;;;;;;15.57;8.75;;;;;;;14.11;83.84;101880.84;4772804;29;20661;-86
2022/10/29 04:16:36;;;;;;;17.25;9.73;;;;;;;14.05;83.74;101868.66;4804308;29;20437;-85
2022/10/29 04:19:01;;;;;;;14.68;10.00;;;;;;;14.00;83.64;101862.66;4773314;29;20060;-85
2022/10/29 04:21:26;;;;;;;16.30;10.07;;;;;;;14.07;84.44;101871.25;4780695;29;20027;-85
2022/10/29 04:23:52;;;;;;;16.35;8.98;;;;;;;14.07;84.09;101852.63;4784657;30;20480;-86
2022/10/29 04:26:17;;;;;;;18.33;11.07;;;;;;;14.10;84.62;101849.88;4774778;29;20057;-85
2022/10/29 04:28:43;;;;;;;18.95;10.82;;;;;;;14.05;84.60;101858.03;4774540;30;20431;-85
2022/10/29 04:31:11;;;;;;;18.33;9.57;;;;;;;14.11;84.55;101860.44;4769111;29;20046;-85
2022/10/29 04:33:37;;;;;;;20.08;9.95;;;;;;;14.13;83.87;101855.94;4783543;29;20034;-86
2022/10/29 04:36:02;;;;;;;17.58;10.15;;;;;;;14.23;83.97;101869.75;4778854;30;20044;-85
2022/10/29 04:38:28;;;;;;;19.60;10.77;;;;;;;14.20;84.71;101857.41;4756287;30;20519;-85
2022/10/29 04:40:57;;;;;;;22.00;11.63;;;;;;;14.10;85.33;101836.56;4779671;29;20032;-85
2022/10/29 04:43:22;;;;;;;18.63;10.88;;;;;;;14.17;84.40;101852.22;4780565;29;20563;-86
2022/10/29 04:45:55;;;;;;;19.58;10.13;;;;;;;14.14;84.49;101860.31;4775622;29;20106;-86
2022/10/29 04:48:22;;;;;;;19.92;10.70;;;;;;;14.13;84.42;101857.69;4782723;29;20036;-85
2022/10/29 04:50:47;;;;;;;17.95;10.73;;;;;;;14.09;84.06;101861.44;4778310;29;20051;-86
2022/10/29 04:53:13;;;;;;;15.90;9.98;;;;;;;14.04;84.38;101865.13;4768911;30;20112;-85
2022/10/29 04:55:39;;;;;;;15.52;10.23;;;;;;;14.03;83.99;101854.53;4777326;29;20162;-86
2022/10/29 04:58:05;;;;;;;19.42;11.38;;;;;;;13.98;84.06;101859.16;4770360;29;20036;-85
2022/10/29 05:00:32;;;;;;;15.98;9.88;;;;;;;14.01;83.33;101859.06;4782069;29;20031;-85
2022/10/29 05:02:57;;;;;;;16.95;9.90;;;;;;;13.99;83.47;101858.25;4782960;29;20161;-86
2022/10/29 05:05:22;;;;;;;17.17;10.30;;;;;;;13.98;83.88;101852.06;4778081;29;20361;-86
2022/10/29 05:07:48;;;;;;;13.07;10.02;;;;;;;13.90;83.42;101850.63;4768742;30;20104;-85
2022/10/29 05:10:13;;;;;;;15.18;9.65;;;;;;;13.92;83.61;101859.41;4778246;29;20187;-85
2022/10/29 05:12:39;;;;;;;17.20;10.35;;;;;;;13.89;83.94;101849.75;4770904;30;20638;-86
2022/10/29 05:15:05;;;;;;;15.32;9.80;;;;;;;13.79;84.84;101840.38;4778382;29;20027;-86
2022/10/29 05:17:31;;;;;;;16.95;9.60;;;;;;;13.83;83.45;101839.34;4778607;30;20029;-85
2022/10/29 05:19:56;;;;;;;18.38;11.00;;;;;;;13.76;82.47;101837.88;4785998;29;20072;-86
2022/10/29 05:22:21;;;;;;;14.00;9.75;;;;;;;13.79;83.90;101851.88;4798230;29;20030;-85
2022/10/29 05:24:47;;;;;;;17.75;11.05;;;;;;;13.59;84.38;101819.88;4784724;29;20593;-86
2022/10/29 05:27:12;;;;;;;15.25;11.35;;;;;;;13.70;84.60;101843.38;4786652;29;20547;-85
2022/10/29 05:29:37;;;;;;;19.33;11.02;;;;;;;13.63;85.30;101837.44;4787606;29;20038;-85
2022/10/29 05:32:03;;;;;;;17.55;10.40;;;;;;;13.68;84.82;101837.28;4786225;29;20125;-86
2022/10/29 05:34:28;;;;;;;21.42;11.32;;;;;;;13.72;85.71;101836.25;4792799;29;20038;-85
2022/10/29 05:36:53;;;;;;;20.23;11.85;;;;;;;13.79;85.86;101843.91;4773236;29;20038;-86
2022/10/29 05:39:19;;;;;;;16.42;10.20;;;;;;;13.88;84.33;101821.44;4775165;29;20043;-85
2022/10/29 05:41:45;;;;;;;18.50;10.63;;;;;;;13.89;85.22;101843.56;4786921;29;20032;-85
2022/10/29 05:44:10;;;;;;;13.15;9.00;;;;;;;13.80;84.66;101823.50;4787128;29;20411;-86
2022/10/29 05:46:35;;;;;;;16.70;8.88;;;;;;;13.87;84.79;101826.81;4803490;29;20023;-85
2022/10/29 05:49:00;;;;;;;10.23;9.13;;;;;;;13.93;85.42;101831.88;4787511;29;20168;-85
2022/10/29 05:51:26;;;;;;;14.23;9.05;;;;;;;13.94;85.00;101838.94;4770357;30;20020;-85
2022/10/29 05:53:51;;;;;;;14.18;8.40;;;;;;;13.89;84.56;101824.94;4772715;30;20031;-85
2022/10/29 05:56:16;;;;;;;13.27;8.05;;;;;;;13.92;84.07;101816.88;4780817;29;20031;-85
2022/10/29 05:58:41;;;;;;;13.35;8.40;;;;;;;13.97;83.99;101830.84;4792512;29;20038;-86
2022/10/29 06:01:08;;;;;;;15.88;9.45;;;;;;;13.98;83.44;101825.47;4800134;29;20399;-86
2022/10/29 06:03:34;;;;;;;16.83;10.43;;;;;;;13.85;83.81;101808.28;4801992;29;20062;-86
2022/10/29 06:06:00;;;;;;;17.90;10.10;;;;;;;13.98;84.10;101816.63;4776560;29;20292;-86
2022/10/29 06:08:25;;;;;;;18.73;10.68;;;;;;;13.88;84.11;101816.13;4786418;29;20037;-85
2022/10/29 06:10:50;;;;;;;19.92;10.90;;;;;;;13.90;84.84;101805.44;4779604;29;20084;-86
2022/10/29 06:13:18;;;;;;;24.92;11.05;;;;;;;13.92;84.48;101803.56;4786282;30;20090;-85
2022/10/29 06:15:45;;;;;;;20.55;11.23;;;;;;;14.00;84.77;101805.03;4803211;29;20403;-86
2022/10/29 06:18:10;;;;;;;19.48;12.35;;;;;;;14.04;85.09;101797.78;4781622;29;20051;-86
2022/10/29 06:20:37;;;;;;;18.98;12.75;;;;;;;14.13;84.87;101817.81;4785957;29;20496;-85
2022/10/29 06:23:03;;;;;;;21.33;12.38;;;;;;;14.25;85.00;101826.19;4805357;29;20027;-85
2022/10/29 06:25:28;;;;;;;26.80;15.07;;;;;;;14.04;86.23;101811.09;4803814;29;20067;-85
2022/10/29 06:28:01;;;;;;;30.52;14.10;;;;;;;14.22;87.14;101834.31;4802629;29;20507;-87
2022/10/29 06:30:28;;;;;;;25.98;13.23;;;;;;;14.15;86.01;101821.28;4800321;29;20357;-85
2022/10/29 06:32:53;;;;;;;27.55;13.38;;;;;;;14.10;85.96;101810.84;4803788;29;20058;-86
2022/10/29 06:35:19;;;;;;;24.27;13.98;;;;;;;14.17;86.16;101822.94;4807781;29;20443;-86
2022/10/29 06:37:44;;;;;;;24.15;13.45;;;;;;;14.25;85.79;101822.66;4784998;29;20035;-85
2022/10/29 06:40:10;;;;;;;33.40;15.77;;;;;;;14.26;86.36;101817.25;4788133;29;20031;-86
2022/10/29 06:42:35;;;;;;;30.70;16.45;;;;;;;14.39;87.13;101838.06;4797456;29;20160;-85
2022/10/29 06:45:00;;;;;;;29.40;15.40;;;;;;;14.30;86.69;101831.31;4807513;29;20031;-86
2022/10/29 06:47:25;;;;;;;23.40;14.40;;;;;;;14.27;86.53;101824.34;4790991;29;20046;-85
2022/10/29 06:49:51;;;;;;;25.63;14.07;;;;;;;14.25;86.11;101830.63;4790998;29;20027;-86
2022/10/29 06:52:16;;;;;;;25.63;14.35;;;;;;;14.26;85.55;101814.59;4797905;29;20031;-86
2022/10/29 06:54:41;;;;;;;27.35;13.85;;;;;;;14.36;86.15;101838.19;4780814;29;20027;-86
2022/10/29 06:57:06;;;;;;;23.08;14.40;;;;;;;14.31;85.56;101825.06;4802146;29;20028;-86
2022/10/29 06:59:32;;;;;;;26.67;14.40;;;;;;;14.33;85.89;101817.91;4786519;29;20058;-86
2022/10/29 07:01:57;;;;;;;23.48;13.82;;;;;;;14.41;85.42;101838.84;4801295;29;20039;-86
2022/10/29 07:04:22;;;;;;;24.77;15.07;;;;;;;14.41;86.71;101825.56;4803233;29;20480;-86
2022/10/29 07:06:48;;;;;;;26.17;14.65;;;;;;;14.47;86.51;101847.47;4802750;29;20161;-86
2022/10/29 07:09:13;;;;;;;26.42;14.68;;;;;;;14.61;87.04;101844.28;4802683;29;20510;-86
2022/10/29 07:11:38;;;;;;;26.52;14.45;;;;;;;14.67;86.78;101833.38;4805050;29;20027;-86
2022/10/29 07:14:08;;;;;;;24.60;14.30;;;;;;;14.65;86.19;101829.94;4807442;29;20030;-86
2022/10/29 07:16:34;;;;;;;24.85;15.07;;;;;;;14.58;86.61;101823.13;4786434;29;20038;-87
2022/10/29 07:19:00;;;;;;;32.97;13.63;;;;;;;14.64;86.66;101816.66;4786417;29;20055;-86
2022/10/29 07:21:26;;;;;;;25.95;15.18;;;;;;;14.77;86.22;101815.22;4805515;29;20130;-86
2022/10/29 07:23:51;;;;;;;30.75;15.98;;;;;;;14.74;87.01;101810.91;4793890;29;20118;-85
2022/10/29 07:26:16;;;;;;;27.23;14.82;;;;;;;14.79;86.95;101819.56;4800179;29;20472;-86
2022/10/29 07:28:41;;;;;;;24.88;14.25;;;;;;;14.91;86.94;101818.16;4787851;29;20122;-86
2022/10/29 07:31:07;;;;;;;22.00;13.40;;;;;;;14.99;86.51;101817.84;4783558;29;20023;-87
2022/10/29 07:33:32;;;;;;;23.92;13.93;;;;;;;15.06;86.17;101811.31;4784167;29;20042;-85
2022/10/29 07:35:58;;;;;;;15.52;11.23;;;;;;;15.03;83.95;101804.34;4783242;30;20035;-86
2022/10/29 07:38:24;;;;;;;26.20;14.27;;;;;;;15.06;85.59;101803.31;4775573;29;20039;-85
2022/10/29 07:40:50;;;;;;;28.95;14.68;;;;;;;15.01;85.36;101790.25;4779727;29;20067;-86
2022/10/29 07:43:16;;;;;;;29.85;15.02;;;;;;;15.13;85.17;101804.81;4790029;29;20548;-87
2022/10/29 07:45:44;;;;;;;25.70;13.15;;;;;;;15.16;84.58;101793.16;4799464;29;20035;-86
2022/10/29 07:48:09;;;;;;;27.52;14.40;;;;;;;15.30;84.25;101817.41;4795817;29;20080;-86
2022/10/29 07:50:36;;;;;;;28.17;13.88;;;;;;;15.45;85.18;101813.19;4804559;29;20027;-86
2022/10/29 07:53:02;;;;;;;27.98;15.13;;;;;;;15.55;85.71;101794.03;4788156;29;20027;-87
2022/10/29 07:55:28;;;;;;;23.15;15.00;;;;;;;16.01;83.58;101804.41;4789064;29;20031;-86
2022/10/29 07:58:00;;;;;;;26.27;15.15;;;;;;;16.35;82.64;101810.75;4776759;29;20570;-86
2022/10/29 08:00:26;;;;;;;21.13;14.43;;;;;;;16.31;81.37;101802.91;4780374;29;20034;-85
2022/10/29 08:02:54;;;;;;;24.45;14.60;;;;;;;16.11;82.62;101799.47;4805008;29;20019;-86
2022/10/29 08:05:20;;;;;;;24.38;14.52;;;;;;;16.13;82.54;101806.44;4804319;29;20034;-85
2022/10/29 08:07:45;;;;;;;26.00;14.40;;;;;;;16.55;82.98;101802.63;4778165;29;20027;-87
2022/10/29 08:10:11;;;;;;;24.27;15.65;;;;;;;16.93;81.85;101819.44;4790259;29;20104;-85
2022/10/29 08:12:36;;;;;;;25.73;15.00;;;;;;;16.85;80.72;101807.41;4799295;29;20062;-86
2022/10/29 08:15:01;;;;;;;27.63;15.75;;;;;;;16.74;80.88;101808.84;4793675;29;20031;-85
2022/10/29 08:17:30;;;;;;;26.92;13.95;;;;;;;16.72;81.87;101807.16;4792515;29;20034;-87
2022/10/29 08:19:55;;;;;;;23.13;13.50;;;;;;;16.67;82.29;101794.00;4799172;29;20400;-85
2022/10/29 08:22:21;;;;;;;37.33;15.13;;;;;;;16.70;82.71;101793.00;4788104;29;20039;-85
2022/10/29 08:24:46;;;;;;;30.52;14.35;;;;;;;16.68;81.93;101790.41;4793710;29;20049;-85
2022/10/29 08:27:11;;;;;;;29.48;14.95;;;;;;;16.77;82.63;101789.09;4775861;30;20033;-86
2022/10/29 08:29:37;;;;;;;26.08;14.27;;;;;;;17.03;81.07;101787.78;4786554;29;20092;-85
2022/10/29 08:32:02;;;;;;;22.52;14.18;;;;;;;17.14;80.44;101790.75;4803238;29;20034;-86
2022/10/29 08:34:27;;;;;;;24.13;14.57;;;;;;;17.07;80.90;101781.34;4792801;29;20079;-85
2022/10/29 08:36:53;;;;;;;23.75;14.45;;;;;;;17.10;80.56;101791.84;4774987;29;20038;-86
2022/10/29 08:39:18;;;;;;;27.00;14.98;;;;;;;17.30;80.02;101793.47;4759015;30;20086;-85
2022/10/29 08:41:58;;;;;;;27.17;14.02;;;;;;;17.43;79.51;101804.38;4786331;29;20033;-86
2022/10/29 08:44:44;;;;;;;24.52;13.35;;;;;;;17.36;79.38;101808.31;4803268;29;20110;-86
2022/10/29 08:47:15;;;;;;;26.25;14.60;;;;;;;17.52;78.56;101814.56;4791933;29;20027;-85
2022/10/29 08:49:46;;;;;;;24.92;14.60;;;;;;;17.78;78.51;101786.44;4800577;29;20038;-85
2022/10/29 08:52:26;;;;;;;25.73;14.57;;;;;;;17.98;78.17;101802.25;4798827;29;20058;-86
2022/10/29 08:54:59;;;;;;;22.85;13.52;;;;;;;17.98;78.40;101799.56;4771814;29;20038;-86
2022/10/29 08:57:24;;;;;;;27.85;14.52;;;;;;;18.01;78.10;101801.22;4779672;30;20032;-85
2022/10/29 09:00:04;;;;;;;25.27;14.05;;;;;;;17.93;78.40;101798.97;4797469;29;20038;-86
2022/10/29 09:02:29;;;;;;;23.05;14.18;;;;;;;17.71;78.68;101791.22;4780057;29;20037;-85
2022/10/29 09:04:55;;;;;;;29.20;14.57;;;;;;;17.76;79.60;101785.66;4800898;29;20026;-86
2022/10/29 09:07:27;;;;;;;29.95;15.18;;;;;;;17.80;79.08;101790.75;4778325;29;20035;-86
2022/10/29 09:09:53;;;;;;;23.38;14.15;;;;;;;17.89;79.09;101789.38;4798609;29;20035;-86
2022/10/29 09:12:34;;;;;;;26.67;13.83;;;;;;;18.09;78.57;101785.56;4804327;29;20357;-86
2022/10/29 09:15:08;;;;;;;27.17;14.50;;;;;;;18.65;76.38;101778.75;4793941;29;20295;-86
2022/10/29 09:18:16;;;;;;;24.05;15.07;;;;;;;18.85;76.22;101772.25;4791724;29;20496;-85
2022/10/29 09:21:10;;;;;;;21.60;13.73;;;;;;;18.91;76.68;101776.38;4791148;29;20053;-85
2022/10/29 09:24:01;;;;;;;25.48;15.05;;;;;;;19.19;75.43;101779.13;4803858;29;20087;-86
2022/10/29 09:26:48;;;;;;;21.03;13.10;;;;;;;19.22;74.02;101783.44;4780981;29;20097;-85
2022/10/29 09:29:51;;;;;;;22.42;12.65;;;;;;;19.10;74.66;101787.72;4772318;30;20035;-85
2022/10/29 09:32:25;;;;;;;23.45;12.63;;;;;;;19.02;73.85;101785.50;4793747;29;20038;-86
2022/10/29 09:34:55;;;;;;;20.88;13.95;;;;;;;18.88;74.02;101773.88;4769359;30;20549;-85
2022/10/29 09:37:26;;;;;;;21.33;13.30;;;;;;;18.87;74.45;101762.31;4764626;30;20038;-86
2022/10/29 09:39:53;;;;;;;20.42;13.27;;;;;;;18.65;75.09;101751.97;4789585;29;20034;-85
2022/10/29 09:42:38;;;;;;;22.65;12.82;;;;;;;18.67;76.06;101770.66;4775449;29;20034;-85
2022/10/29 09:45:08;;;;;;;19.25;12.48;;;;;;;18.67;75.94;101765.28;4786988;29;20034;-85
2022/10/29 09:47:51;;;;;;;23.38;13.48;;;;;;;18.71;75.67;101767.72;4794894;29;20110;-85
2022/10/29 09:50:28;;;;;;;25.02;12.02;;;;;;;18.87;75.30;101770.34;4796298;29;20062;-85
2022/10/29 09:52:54;;;;;;;21.48;12.57;;;;;;;19.01;74.29;101748.06;4785707;30;20102;-85
2022/10/29 09:55:24;;;;;;;22.52;12.90;;;;;;;19.31;74.42;101754.25;4769193;30;20126;-85
2022/10/29 09:57:50;;;;;;;18.60;12.20;;;;;;;19.56;73.75;101750.88;4780834;29;20027;-85
2022/10/29 10:00:22;;;;;;;22.25;12.45;;;;;;;20.03;73.16;101740.75;4771019;30;20380;-86
2022/10/29 10:03:13;;;;;;;21.33;11.82;;;;;;;20.76;71.07;101746.59;4797625;29;20042;-85
2022/10/29 10:06:06;;;;;;;19.80;11.13;;;;;;;21.05;71.47;101751.78;4778986;29;20031;-86
2022/10/29 10:08:33;;;;;;;15.95;10.25;;;;;;;23.25;62.83;101745.31;4803023;29;20053;-85
2022/10/29 10:11:01;;;;;;;18.75;9.48;;;;;;;25.39;54.64;101744.47;4769237;29;20032;-85
2022/10/29 10:13:29;;;;;;;18.98;8.93;;;;;;;24.58;54.23;101739.84;4793539;29;20124;-85
2022/10/29 10:15:59;;;;;;;17.05;9.63;;;;;;;23.79;58.68;101736.50;4766153;29;20035;-86
2022/10/29 10:18:36;;;;;;;20.05;9.82;;;;;;;23.37;59.48;101745.22;4794864;29;20134;-86
2022/10/29 10:21:06;;;;;;;15.88;10.25;;;;;;;23.00;59.64;101746.41;4794141;29;20039;-85
2022/10/29 10:23:46;;;;;;;18.38;10.20;;;;;;;23.38;57.10;101740.69;4793501;29;20031;-86
2022/10/29 10:26:41;;;;;;;23.38;10.52;;;;;;;24.80;58.60;101747.78;4790805;29;20034;-85
2022/10/29 10:29:20;;;;;;;14.65;8.77;;;;;;;26.41;54.20;101726.16;4789095;29;20526;-85
2022/10/29 10:31:47;;;;;;;19.13;9.85;;;;;;;27.58;47.46;101740.34;4802601;29;20045;-85
2022/10/29 10:34:21;;;;;;;14.30;7.75;;;;;;;28.77;47.49;101743.81;4791217;29;20035;-85
2022/10/29 10:36:55;;;;;;;17.65;9.13;;;;;;;29.97;44.90;101724.69;4774495;29;20041;-85
2022/10/29 10:39:35;;;;;;;15.85;8.73;;;;;;;30.09;44.79;101729.84;4755909;29;20069;-85
2022/10/29 10:42:04;;;;;;;19.65;7.97;;;;;;;30.27;40.13;101727.03;4785650;29;20045;-86
2022/10/29 10:44:29;;;;;;;17.67;8.05;;;;;;;30.19;39.77;101727.84;4795925;29;20035;-85
2022/10/29 10:46:58;;;;;;;13.75;7.32;;;;;;;30.58;38.89;101724.44;4796981;29;20438;-86
2022/10/29 10:49:31;;;;;;;16.45;7.22;;;;;;;30.82;38.98;101715.41;4784939;29;20042;-85
2022/10/29 10:51:58;;;;;;;10.85;5.90;;;;;;;31.53;37.58;101719.19;4773256;29;20023;-85
2022/10/29 10:54:55;;;;;;;13.05;6.28;;;;;;;32.08;36.64;101719.03;4795598;29;20057;-85
2022/10/29 10:57:24;;;;;;;15.10;7.15;;;;;;;31.79;35.40;101722.44;4772136;29;20046;-85
2022/10/29 10:59:55;;;;;;;16.98;7.35;;;;;;;32.56;36.25;101713.41;4776966;29;20084;-85
2022/10/29 11:02:26;;;;;;;13.82;7.07;;;;;;;33.06;35.54;101710.00;4806356;29;20468;-85
2022/10/29 11:05:13;;;;;;;15.80;6.07;;;;;;;33.13;37.02;101707.34;4789588;29;20476;-85
2022/10/29 11:07:54;;;;;;;16.88;6.30;;;;;;;32.89;34.71;101714.78;4777091;30;20071;-86
2022/10/29 11:10:29;;;;;;;14.83;6.60;;;;;;;33.01;35.14;101713.28;4792006;29;20041;-85
2022/10/29 11:12:57;;;;;;;17.75;6.15;;;;;;;33.29;32.84;101714.53;4791586;29;20302;-85
2022/10/29 11:15:37;;;;;;;19.80;7.75;;;;;;;32.98;33.74;101715.59;4805731;29;20027;-86
2022/10/29 11:18:15;;;;;;;21.90;7.40;;;;;;;32.89;34.01;101714.78;4777675;29;20031;-86
2022/10/29 11:20:47;;;;;;;14.77;5.97;;;;;;;33.00;35.22;101706.13;4799743;29;20098;-85
2022/10/29 11:23:34;;;;;;;15.35;5.30;;;;;;;33.18;33.34;101703.00;4798410;29;20038;-85